createdAt,value
2019-04-06T00:01:52.087Z,46.90
2019-04-06T00:04:20.465Z,46.90
2019-04-06T00:06:49.357Z,47.50
2019-04-06T00:09:17.751Z,46.80
2019-04-06T00:11:46.147Z,46.90
2019-04-06T00:14:14.556Z,46.90
2019-04-06T00:16:42.959Z,47.00
2019-04-06T00:19:11.349Z,47.00
2019-04-06T00:21:39.762Z,47.20
2019-04-06T00:24:08.151Z,47.10
2019-04-06T00:26:36.542Z,47.10
2019-04-06T00:29:05.213Z,47.10
2019-04-06T00:31:41.227Z,47.30
2019-04-06T00:34:09.699Z,47.20
2019-04-06T00:36:38.100Z,47.10
2019-04-06T00:39:06.504Z,47.20
2019-04-06T00:41:35.221Z,47.20
2019-04-06T00:44:03.642Z,47.40
2019-04-06T00:46:32.031Z,47.40
2019-04-06T00:49:00.417Z,47.50
2019-04-06T00:51:28.824Z,47.40
2019-04-06T00:53:57.232Z,47.50
2019-04-06T00:56:25.617Z,47.40
2019-04-06T00:58:54.037Z,47.30
2019-04-06T01:01:22.421Z,47.40
2019-04-06T01:03:50.834Z,47.50
2019-04-06T01:06:19.327Z,47.60
2019-04-06T01:08:47.809Z,47.70
2019-04-06T01:11:16.190Z,47.70
2019-04-06T01:13:44.597Z,47.70
2019-04-06T01:16:13.357Z,47.70
2019-04-06T01:18:41.756Z,47.70
2019-04-06T01:21:10.165Z,47.70
2019-04-06T01:23:38.558Z,47.80
2019-04-06T01:26:07.795Z,47.90
2019-04-06T01:28:36.356Z,48.00
2019-04-06T01:31:04.944Z,48.00
2019-04-06T01:33:33.332Z,48.20
2019-04-06T01:36:01.742Z,48.00
2019-04-06T01:38:30.224Z,48.50
2019-04-06T01:40:58.621Z,48.20
2019-04-06T01:43:28.029Z,48.10
2019-04-06T01:45:56.420Z,48.20
2019-04-06T01:48:24.865Z,48.30
2019-04-06T01:50:53.281Z,48.40
2019-04-06T01:53:21.678Z,48.50
2019-04-06T01:55:50.069Z,48.60
2019-04-06T01:58:18.472Z,48.70
2019-04-06T02:01:00.679Z,48.80
2019-04-06T02:03:29.362Z,48.80
2019-04-06T02:05:57.756Z,48.70
2019-04-06T02:08:26.140Z,48.70
2019-04-06T02:10:56.237Z,48.80
2019-04-06T02:13:24.587Z,48.80
2019-04-06T02:15:52.972Z,48.90
2019-04-06T02:18:21.343Z,49.00
2019-04-06T02:20:49.704Z,48.90
2019-04-06T02:23:19.639Z,48.90
2019-04-06T02:25:48.027Z,48.90
2019-04-06T02:28:16.331Z,49.00
2019-04-06T02:30:46.329Z,49.00
2019-04-06T02:33:16.393Z,49.00
2019-04-06T02:35:46.556Z,49.00
2019-04-06T02:38:19.541Z,49.30
2019-04-06T02:40:57.187Z,49.00
2019-04-06T02:43:27.196Z,49.20
2019-04-06T02:45:58.379Z,49.30
2019-04-06T02:48:26.757Z,48.70
2019-04-06T02:50:55.390Z,49.20
2019-04-06T02:53:23.961Z,49.30
2019-04-06T02:55:52.282Z,49.20
2019-04-06T02:58:23.630Z,49.30
2019-04-06T03:00:52.749Z,49.30
2019-04-06T03:03:21.418Z,49.40
2019-04-06T03:05:49.785Z,49.50
2019-04-06T03:08:18.356Z,49.50
2019-04-06T03:10:46.758Z,49.40
2019-04-06T03:13:15.146Z,49.40
2019-04-06T03:15:43.574Z,49.60
2019-04-06T03:18:11.943Z,49.50
2019-04-06T03:20:40.311Z,49.50
2019-04-06T03:23:08.717Z,49.60
2019-04-06T03:25:37.056Z,49.60
2019-04-06T03:28:05.359Z,49.80
2019-04-06T03:30:33.657Z,49.80
2019-04-06T03:33:02.035Z,49.80
2019-04-06T03:35:30.965Z,49.90
2019-04-06T03:37:59.463Z,49.90
2019-04-06T03:40:28.021Z,50.00
2019-04-06T03:42:56.396Z,49.90
2019-04-06T03:45:24.717Z,49.90
2019-04-06T03:47:53.212Z,50.00
2019-04-06T03:50:21.672Z,49.80
2019-04-06T03:52:50.009Z,49.80
2019-04-06T03:55:18.300Z,49.90
2019-04-06T03:57:46.538Z,49.80
2019-04-06T04:00:14.863Z,50.00
2019-04-06T04:02:43.203Z,50.10
2019-04-06T04:05:11.720Z,50.20
2019-04-06T04:07:40.206Z,50.10
2019-04-06T04:10:08.588Z,50.10
2019-04-06T04:12:36.952Z,50.10
2019-04-06T04:15:05.882Z,50.30
2019-04-06T04:17:34.443Z,50.30
2019-04-06T04:20:02.983Z,50.10
2019-04-06T04:22:31.227Z,50.30
2019-04-06T04:24:59.506Z,50.40
2019-04-06T04:27:30.282Z,50.40
2019-04-06T04:29:57.701Z,50.40
2019-04-06T04:32:25.974Z,50.40
2019-04-06T04:34:54.279Z,50.50
2019-04-06T04:37:22.525Z,50.50
2019-04-06T04:39:51.281Z,50.60
2019-04-06T04:42:19.586Z,50.60
2019-04-06T04:44:47.821Z,50.60
2019-04-06T04:47:16.239Z,50.80
2019-04-06T04:49:44.545Z,50.60
2019-04-06T04:52:13.015Z,50.70
2019-04-06T04:54:41.378Z,50.70
2019-04-06T04:57:09.621Z,50.90
2019-04-06T04:59:37.869Z,50.80
2019-04-06T05:02:06.209Z,51.00
2019-04-06T05:04:34.449Z,51.00
2019-04-06T05:07:02.693Z,51.30
2019-04-06T05:09:30.947Z,51.20
2019-04-06T05:11:59.337Z,51.30
2019-04-06T05:14:58.666Z,51.30
2019-04-06T05:17:26.984Z,51.20
2019-04-06T05:19:55.234Z,51.30
2019-04-06T05:22:23.595Z,51.20
2019-04-06T05:24:51.994Z,51.20
2019-04-06T05:27:20.301Z,51.30
2019-04-06T05:29:48.608Z,51.10
2019-04-06T05:32:16.842Z,51.30
2019-04-06T05:34:45.159Z,51.40
2019-04-06T05:37:13.597Z,52.20
2019-04-06T05:39:41.854Z,51.60
2019-04-06T05:42:10.099Z,51.70
2019-04-06T05:44:38.362Z,51.70
2019-04-06T05:47:06.620Z,51.80
2019-04-06T05:49:34.862Z,52.00
2019-04-06T05:52:03.581Z,51.90
2019-04-06T05:54:31.829Z,52.00
2019-04-06T05:57:00.107Z,51.80
2019-04-06T05:59:28.399Z,52.00
2019-04-06T06:01:56.717Z,51.90
2019-04-06T06:04:24.956Z,52.00
2019-04-06T06:06:53.200Z,52.10
2019-04-06T06:09:21.445Z,52.10
2019-04-06T06:11:49.674Z,52.00
2019-04-06T06:14:18.177Z,52.20
2019-04-06T06:16:46.418Z,52.20
2019-04-06T06:19:14.663Z,52.10
2019-04-06T06:21:42.927Z,52.10
2019-04-06T06:24:11.445Z,52.20
2019-04-06T06:26:39.765Z,52.20
2019-04-06T06:29:08.017Z,52.30
2019-04-06T06:31:36.283Z,52.20
2019-04-06T06:34:05.101Z,52.20
2019-04-06T06:36:33.454Z,52.40
2019-04-06T06:39:01.693Z,52.30
2019-04-06T06:41:29.987Z,52.30
2019-04-06T06:43:58.289Z,52.40
2019-04-06T06:46:26.518Z,52.50
2019-04-06T06:48:54.784Z,52.40
2019-04-06T06:51:23.094Z,52.50
2019-04-06T06:53:51.697Z,52.60
2019-04-06T06:56:19.935Z,52.60
2019-04-06T06:58:48.193Z,53.20
2019-04-06T07:01:16.433Z,52.50
2019-04-06T07:03:44.688Z,52.60
2019-04-06T07:06:13.007Z,52.70
2019-04-06T07:08:41.451Z,52.70
2019-04-06T07:11:09.925Z,52.80
2019-04-06T07:13:38.284Z,52.80
2019-04-06T07:16:06.511Z,52.80
2019-04-06T07:18:34.830Z,52.90
2019-04-06T07:21:03.102Z,53.00
2019-04-06T07:23:31.361Z,53.00
2019-04-06T07:25:59.675Z,53.10
2019-04-06T07:28:37.084Z,53.20
2019-04-06T07:30:57.901Z,53.20
2019-04-06T07:33:26.141Z,53.40
2019-04-06T07:35:54.403Z,53.30
2019-04-06T07:38:22.846Z,53.20
2019-04-06T07:40:51.197Z,53.10
2019-04-06T07:43:19.459Z,53.40
2019-04-06T07:45:47.773Z,53.30
2019-04-06T07:48:16.053Z,53.30
2019-04-06T07:50:44.319Z,53.30
2019-04-06T07:53:13.958Z,53.30
2019-04-06T07:55:42.440Z,53.40
2019-04-06T07:58:10.706Z,53.30
2019-04-06T08:00:38.958Z,53.40
2019-04-06T08:03:07.213Z,53.40
2019-04-06T08:05:35.489Z,53.50
2019-04-06T08:08:03.755Z,53.40
2019-04-06T08:10:32.016Z,53.20
2019-04-06T08:13:00.265Z,53.20
2019-04-06T08:15:28.496Z,53.50
2019-04-06T08:17:56.737Z,53.60
2019-04-06T08:20:26.814Z,53.60
2019-04-06T08:22:55.081Z,53.50
2019-04-06T08:25:23.320Z,53.50
2019-04-06T08:27:51.821Z,53.70
2019-04-06T08:30:20.061Z,54.40
2019-04-06T08:32:48.335Z,53.70
2019-04-06T08:35:25.439Z,53.60
2019-04-06T08:37:48.270Z,53.50
2019-04-06T08:40:16.599Z,53.40
2019-04-06T08:42:45.321Z,53.40
2019-04-06T08:45:14.496Z,53.40
2019-04-06T08:47:42.987Z,53.30
2019-04-06T08:50:11.690Z,53.10
2019-04-06T08:52:39.915Z,53.30
2019-04-06T08:55:08.247Z,53.30
2019-04-06T08:57:37.143Z,53.50
2019-04-06T09:00:06.924Z,53.50
2019-04-06T09:02:35.435Z,53.70
2019-04-06T09:05:05.437Z,53.80
2019-04-06T09:07:33.890Z,53.90
2019-04-06T09:10:02.200Z,53.90
2019-04-06T09:12:30.621Z,53.90
2019-04-06T09:14:59.018Z,53.90
2019-04-06T09:17:27.377Z,54.00
2019-04-06T09:19:55.761Z,54.00
2019-04-06T09:22:24.033Z,53.90
2019-04-06T09:24:52.296Z,53.70
2019-04-06T09:27:20.641Z,53.70
2019-04-06T09:29:48.886Z,54.20
2019-04-06T09:32:17.134Z,54.30
2019-04-06T09:34:45.405Z,53.40
2019-04-06T09:37:13.647Z,53.30
2019-04-06T09:39:41.901Z,52.70
2019-04-06T09:42:10.152Z,53.00
2019-04-06T09:44:40.030Z,52.80
2019-04-06T09:47:09.917Z,52.90
2019-04-06T09:49:39.885Z,52.70
2019-04-06T09:52:09.768Z,52.80
2019-04-06T09:54:48.685Z,52.60
2019-04-06T09:57:24.447Z,52.70
2019-04-06T10:00:01.399Z,52.70
2019-04-06T10:02:47.820Z,52.80
2019-04-06T10:05:24.316Z,52.40
2019-04-06T10:08:12.921Z,52.30
2019-04-06T10:10:48.661Z,52.70
2019-04-06T10:13:21.219Z,52.30
2019-04-06T10:16:00.180Z,52.20
2019-04-06T10:18:42.180Z,52.60
2019-04-06T10:21:21.455Z,52.70
2019-04-06T10:24:00.339Z,52.60
2019-04-06T10:26:33.006Z,52.70
2019-04-06T10:29:08.600Z,52.90
2019-04-06T10:31:44.745Z,52.80
2019-04-06T10:34:29.708Z,52.30
2019-04-06T10:37:05.540Z,51.80
2019-04-06T10:39:41.175Z,51.40
2019-04-06T10:42:11.309Z,51.30
2019-04-06T10:44:45.655Z,51.10
2019-04-06T10:47:32.250Z,50.10
2019-04-06T10:50:18.320Z,50.60
2019-04-06T10:52:51.155Z,50.10
2019-04-06T10:55:29.727Z,50.30
2019-04-06T10:57:59.613Z,49.30
2019-04-06T11:00:36.400Z,49.90
2019-04-06T11:03:18.773Z,50.20
2019-04-06T11:05:48.653Z,49.50
2019-04-06T11:08:21.257Z,49.60
2019-04-06T11:10:51.238Z,50.20
2019-04-06T11:13:24.066Z,50.10
2019-04-06T11:16:10.523Z,50.10
2019-04-06T11:18:40.929Z,48.90
2019-04-06T11:21:11.099Z,49.70
2019-04-06T11:23:41.290Z,49.90
2019-04-06T11:26:13.869Z,49.70
2019-04-06T11:28:44.085Z,49.50
2019-04-06T11:31:30.415Z,49.30
2019-04-06T11:34:05.766Z,49.50
2019-04-06T11:36:52.241Z,49.20
2019-04-06T11:39:25.342Z,49.10
2019-04-06T11:41:55.504Z,49.00
2019-04-06T11:44:37.720Z,48.90
2019-04-06T11:47:16.658Z,48.60
2019-04-06T11:50:05.106Z,49.00
2019-04-06T11:52:40.943Z,48.40
2019-04-06T11:55:20.053Z,48.20
2019-04-06T11:57:58.985Z,48.60
2019-04-06T12:00:34.874Z,48.60
2019-04-06T12:03:17.474Z,48.50
2019-04-06T12:05:47.639Z,48.10
2019-04-06T12:08:20.305Z,48.00
2019-04-06T12:10:59.274Z,47.80
2019-04-06T12:13:29.215Z,48.20
2019-04-06T12:15:59.093Z,48.30
2019-04-06T12:18:34.753Z,48.60
2019-04-06T12:21:23.033Z,48.50
2019-04-06T12:23:55.931Z,48.10
2019-04-06T12:26:28.812Z,47.90
2019-04-06T12:29:10.802Z,48.10
2019-04-06T12:31:43.361Z,48.20
2019-04-06T12:34:15.897Z,48.10
2019-04-06T12:37:01.904Z,48.10
2019-04-06T12:39:34.824Z,48.70
2019-04-06T12:42:23.085Z,48.50
2019-04-06T12:44:52.978Z,48.80
2019-04-06T12:47:25.510Z,46.40
2019-04-06T12:50:12.174Z,45.90
2019-04-06T12:52:58.251Z,46.10
2019-04-06T12:55:34.135Z,44.30
2019-04-06T12:58:20.601Z,45.80
2019-04-06T13:00:53.059Z,45.30
2019-04-06T13:03:27.798Z,45.70
2019-04-06T13:06:00.997Z,46.30
2019-04-06T13:08:30.863Z,45.50
2019-04-06T13:11:19.897Z,47.00
2019-04-06T13:13:58.993Z,47.30
2019-04-06T13:16:45.304Z,46.60
2019-04-06T13:19:24.134Z,46.90
2019-04-06T13:22:12.185Z,47.80
2019-04-06T13:24:42.068Z,46.90
2019-04-06T13:27:18.050Z,45.60
2019-04-06T13:29:59.866Z,45.30
2019-04-06T13:32:35.749Z,45.60
2019-04-06T13:35:12.559Z,45.60
2019-04-06T13:38:00.607Z,45.40
2019-04-06T13:40:47.102Z,45.70
2019-04-06T13:43:17.037Z,45.30
2019-04-06T13:46:03.348Z,45.30
2019-04-06T13:48:39.212Z,45.60
2019-04-06T13:51:09.506Z,45.60
2019-04-06T13:53:45.781Z,45.00
2019-04-06T13:56:21.917Z,44.50
2019-04-06T13:58:54.596Z,44.50
2019-04-06T14:01:39.746Z,45.00
2019-04-06T14:04:12.794Z,45.10
2019-04-06T14:06:45.366Z,45.00
2019-04-06T14:09:15.358Z,44.70
2019-04-06T14:11:57.386Z,44.70
2019-04-06T14:14:29.191Z,44.50
2019-04-06T14:17:04.984Z,44.00
2019-04-06T14:19:51.462Z,43.80
2019-04-06T14:22:21.678Z,43.20
2019-04-06T14:24:51.677Z,42.90
2019-04-06T14:27:38.435Z,43.30
2019-04-06T14:30:17.293Z,43.00
2019-04-06T14:32:59.297Z,42.80
2019-04-06T14:35:35.166Z,42.90
2019-04-06T14:38:08.055Z,43.90
2019-04-06T14:40:38.203Z,43.70
2019-04-06T14:43:14.027Z,43.50
2019-04-06T14:45:46.719Z,42.40
2019-04-06T14:48:25.722Z,42.40
2019-04-06T14:50:55.664Z,42.30
2019-04-06T14:53:28.548Z,42.20
2019-04-06T14:55:58.902Z,42.50
2019-04-06T14:58:29.127Z,42.00
2019-04-06T15:01:01.765Z,41.90
2019-04-06T15:03:38.147Z,41.40
2019-04-06T15:06:17.111Z,40.10
2019-04-06T15:08:47.688Z,40.40
2019-04-06T15:11:36.065Z,40.90
2019-04-06T15:14:08.990Z,41.10
2019-04-06T15:16:54.148Z,41.50
2019-04-06T15:19:42.606Z,41.30
2019-04-06T15:22:28.710Z,41.30
2019-04-06T15:25:13.950Z,41.50
2019-04-06T15:27:56.237Z,42.50
2019-04-06T15:30:42.516Z,41.50
2019-04-06T15:33:21.942Z,41.20
2019-04-06T15:35:52.040Z,40.90
2019-04-06T15:38:30.953Z,40.90
2019-04-06T15:41:13.108Z,40.70
2019-04-06T15:43:45.893Z,41.10
2019-04-06T15:46:15.767Z,40.80
2019-04-06T15:49:04.053Z,40.80
2019-04-06T15:51:46.383Z,40.30
2019-04-06T15:54:16.453Z,40.40
2019-04-06T15:57:01.357Z,40.50
2019-04-06T15:59:34.159Z,40.60
2019-04-06T16:02:22.154Z,40.70
2019-04-06T16:05:01.938Z,40.70
2019-04-06T16:07:48.094Z,40.30
2019-04-06T16:10:21.126Z,39.90
2019-04-06T16:12:51.192Z,39.80
2019-04-06T16:15:21.180Z,40.00
2019-04-06T16:17:51.151Z,40.40
2019-04-06T16:20:27.901Z,40.40
2019-04-06T16:23:14.595Z,39.70
2019-04-06T16:25:47.491Z,40.00
2019-04-06T16:28:17.408Z,39.90
2019-04-06T16:30:51.455Z,39.80
2019-04-06T16:33:30.349Z,39.70
2019-04-06T16:36:06.313Z,39.70
2019-04-06T16:38:42.216Z,39.60
2019-04-06T16:41:28.644Z,39.70
2019-04-06T16:43:58.655Z,39.70
2019-04-06T16:46:46.964Z,39.90
2019-04-06T16:49:19.798Z,39.80
2019-04-06T16:51:49.711Z,39.90
2019-04-06T16:54:25.306Z,39.90
2019-04-06T16:56:57.930Z,39.80
2019-04-06T16:59:44.287Z,39.80
2019-04-06T17:02:22.992Z,39.90
2019-04-06T17:04:48.763Z,40.00
2019-04-06T17:07:19.367Z,40.00
2019-04-06T17:09:58.335Z,40.00
2019-04-06T17:12:31.680Z,40.10
2019-04-06T17:15:04.560Z,40.20
2019-04-06T17:17:39.379Z,40.50
2019-04-06T17:20:16.061Z,40.20
2019-04-06T17:22:55.154Z,40.50
2019-04-06T17:25:27.780Z,40.40
2019-04-06T17:28:14.170Z,40.60
2019-04-06T17:30:44.065Z,40.70
2019-04-06T17:33:30.635Z,40.80
2019-04-06T17:36:04.122Z,40.80
2019-04-06T17:38:34.071Z,40.90
2019-04-06T17:41:07.319Z,41.00
2019-04-06T17:43:54.248Z,41.10
2019-04-06T17:46:27.187Z,41.30
2019-04-06T17:49:13.412Z,41.30
2019-04-06T17:51:44.686Z,41.30
2019-04-06T17:54:20.325Z,41.30
2019-04-06T17:56:56.014Z,41.40
2019-04-06T17:59:43.870Z,41.40
2019-04-06T18:02:20.334Z,41.40
2019-04-06T18:05:06.437Z,41.50
2019-04-06T18:07:39.458Z,41.50
2019-04-06T18:10:15.487Z,41.70
2019-04-06T18:13:01.913Z,41.80
2019-04-06T18:15:30.733Z,41.80
2019-04-06T18:17:59.033Z,41.90
2019-04-06T18:20:27.633Z,41.70
2019-04-06T18:22:56.007Z,41.80
2019-04-06T18:25:24.249Z,42.00
2019-04-06T18:27:52.631Z,42.10
2019-04-06T18:30:21.287Z,41.90
2019-04-06T18:32:59.904Z,42.20
2019-04-06T18:35:23.362Z,42.10
2019-04-06T18:38:02.161Z,42.10
2019-04-06T18:40:32.054Z,42.30
2019-04-06T18:43:00.305Z,42.20
2019-04-06T18:45:30.297Z,42.30
2019-04-06T18:47:58.731Z,42.20
2019-04-06T18:50:34.148Z,42.40
2019-04-06T18:52:56.954Z,42.40
2019-04-06T18:55:25.468Z,42.40
2019-04-06T18:57:53.816Z,42.50
2019-04-06T19:00:22.058Z,42.80
2019-04-06T19:02:50.390Z,42.80
2019-04-06T19:05:18.650Z,42.90
2019-04-06T19:07:47.137Z,42.70
2019-04-06T19:10:15.632Z,42.90
2019-04-06T19:12:43.849Z,42.90
2019-04-06T19:15:12.436Z,42.90
2019-04-06T19:17:40.730Z,42.80
2019-04-06T19:20:09.164Z,42.90
2019-04-06T19:22:37.710Z,43.10
2019-04-06T19:25:07.025Z,43.10
2019-04-06T19:27:35.280Z,43.10
2019-04-06T19:30:08.161Z,43.30
2019-04-06T19:32:36.892Z,43.20
2019-04-06T19:35:08.883Z,43.60
2019-04-06T19:37:37.279Z,43.70
2019-04-06T19:40:07.259Z,43.70
2019-04-06T19:42:35.494Z,44.10
2019-04-06T19:45:05.688Z,43.80
2019-04-06T19:47:33.953Z,43.90
2019-04-06T19:50:02.823Z,44.20
2019-04-06T19:52:31.449Z,44.10
2019-04-06T19:54:59.848Z,44.20
2019-04-06T19:57:28.281Z,44.00
2019-04-06T19:59:57.231Z,44.20
2019-04-06T20:02:26.065Z,44.30
2019-04-06T20:04:54.768Z,44.30
2019-04-06T20:07:23.132Z,44.40
2019-04-06T20:09:51.489Z,44.50
2019-04-06T20:12:19.719Z,44.30
2019-04-06T20:14:48.361Z,44.40
2019-04-06T20:17:16.790Z,44.60
2019-04-06T20:19:45.470Z,44.50
2019-04-06T20:22:13.819Z,44.70
2019-04-06T20:24:42.117Z,44.60
2019-04-06T20:27:10.514Z,44.70
2019-04-06T20:29:38.829Z,45.00
2019-04-06T20:32:07.093Z,45.20
2019-04-06T20:34:35.532Z,45.20
2019-04-06T20:37:04.945Z,45.30
2019-04-06T20:39:33.690Z,45.60
2019-04-06T20:42:02.680Z,45.40
2019-04-06T20:44:31.466Z,46.40
2019-04-06T20:46:59.854Z,45.80
2019-04-06T20:49:28.112Z,45.80
2019-04-06T20:51:58.707Z,45.80
2019-04-06T20:54:26.437Z,45.60
2019-04-06T20:56:58.145Z,45.80
2019-04-06T20:59:24.688Z,45.70
2019-04-06T21:01:53.185Z,45.90
2019-04-06T21:04:21.518Z,45.90
2019-04-06T21:06:49.767Z,46.10
2019-04-06T21:09:18.045Z,45.90
2019-04-06T21:11:46.779Z,46.00
2019-04-06T21:14:15.639Z,45.90
2019-04-06T21:16:44.567Z,46.00
2019-04-06T21:19:13.156Z,46.00
2019-04-06T21:21:41.474Z,45.90
2019-04-06T21:24:10.285Z,45.90
2019-04-06T21:26:38.920Z,46.10
2019-04-06T21:29:07.245Z,46.20
2019-04-06T21:31:36.271Z,46.20
2019-04-06T21:34:12.046Z,46.20
2019-04-06T21:36:35.129Z,46.30
2019-04-06T21:39:05.161Z,46.40
2019-04-06T21:41:33.971Z,46.50
2019-04-06T21:44:02.386Z,46.30
2019-04-06T21:46:30.697Z,46.50
2019-04-06T21:48:59.219Z,46.60
2019-04-06T21:51:27.557Z,46.60
2019-04-06T21:53:56.305Z,46.50
2019-04-06T21:56:24.904Z,46.60
2019-04-06T21:58:53.411Z,46.50
2019-04-06T22:01:21.769Z,46.50
2019-04-06T22:03:50.552Z,46.60
2019-04-06T22:06:19.402Z,47.40
2019-04-06T22:08:47.853Z,46.50
2019-04-06T22:11:16.466Z,46.80
2019-04-06T22:13:45.272Z,47.30
2019-04-06T22:16:14.258Z,46.90
2019-04-06T22:18:43.087Z,46.80
2019-04-06T22:21:11.434Z,47.00
2019-04-06T22:23:43.260Z,47.20
2019-04-06T22:26:10.897Z,47.40
2019-04-06T22:28:39.305Z,47.40
2019-04-06T22:31:07.567Z,47.50
2019-04-06T22:33:38.200Z,47.40
2019-04-06T22:36:06.662Z,47.50
2019-04-06T22:38:34.901Z,47.40
2019-04-06T22:41:03.598Z,47.50
2019-04-06T22:43:31.965Z,47.70
2019-04-06T22:46:00.242Z,47.60
2019-04-06T22:48:28.486Z,47.50
2019-04-06T22:50:56.720Z,47.60
2019-04-06T22:53:24.980Z,47.90
2019-04-06T22:55:53.219Z,47.80
2019-04-06T22:58:22.399Z,47.70
2019-04-06T23:01:07.984Z,47.70
2019-04-06T23:03:57.257Z,48.30
2019-04-06T23:06:29.973Z,47.60
2019-04-06T23:08:58.284Z,47.70
2019-04-06T23:11:26.527Z,47.80
2019-04-06T23:13:55.181Z,47.70
2019-04-06T23:16:23.576Z,47.70
2019-04-06T23:18:51.830Z,47.90
2019-04-06T23:21:20.325Z,47.60
2019-04-06T23:23:48.732Z,47.70
2019-04-06T23:26:16.997Z,48.00
2019-04-06T23:28:45.766Z,48.20
2019-04-06T23:31:14.713Z,48.10
2019-04-06T23:33:43.139Z,48.10
2019-04-06T23:36:11.937Z,49.00
2019-04-06T23:38:40.463Z,48.30
2019-04-06T23:41:09.394Z,48.50
2019-04-06T23:43:37.760Z,48.60
2019-04-06T23:46:06.395Z,48.40
2019-04-06T23:48:34.858Z,48.40
2019-04-06T23:51:03.245Z,48.40
2019-04-06T23:53:31.678Z,48.50
2019-04-06T23:56:00.156Z,48.30
2019-04-06T23:58:28.408Z,48.60
